Ystrad Meurig, United Kingdom
Current Conditions -  °F | °C
As of 10:50 AM on Friday 19 Dec 2014 (Local Time) from EGOP Reporting Station
Broken Clouds Broken Clouds  
Wind Chill: 39°   Ceiling: 5000
Heat Index: 46°   Visibility: 6mi
Dew Point: 41°   Wind: 20mph
Humidity: 81%   Direction: 280°W
Pressure: 30.06"   Gusts: NA
Location:  52.29°N, 3.9°W
Report Text: EGOP 191050Z AUTO 28017KT 9999 // FEW037/// BKN050/// 08/05 Q1018
Loading
Personal Weather Stations






























Interactive Weather Map New forecast layout! Learn more

10-Day Weather Forecast

Advertisements
Track Severe Weather on mobile